createdAt,value
2024-01-09T00:00:07.305Z,36.50
2024-01-09T00:00:20.760Z,35.63
2024-01-09T00:00:53.717Z,35.47
2024-01-09T00:01:26.672Z,36.08
2024-01-09T00:01:43.627Z,36.45
2024-01-09T00:01:57.743Z,35.78
2024-01-09T00:02:10.855Z,35.33
2024-01-09T00:02:24.175Z,35.17
2024-01-09T00:02:37.522Z,35.58
2024-01-09T00:02:50.723Z,36.30
2024-01-09T00:03:04.619Z,36.33
2024-01-09T00:03:17.909Z,36.20
2024-01-09T00:03:31.965Z,36.03
2024-01-09T00:03:46.022Z,36.22
2024-01-09T00:03:59.664Z,36.78
2024-01-09T00:04:13.136Z,36.58
2024-01-09T00:04:27.527Z,36.83
2024-01-09T00:04:40.487Z,37.22
2024-01-09T00:04:53.569Z,37.00
2024-01-09T00:05:07.185Z,36.13
2024-01-09T00:05:20.231Z,35.25
2024-01-09T00:05:34.439Z,34.95
2024-01-09T00:05:47.758Z,35.00
2024-01-09T00:06:00.939Z,34.95
2024-01-09T00:06:15.291Z,35.38
2024-01-09T00:06:29.193Z,34.72
2024-01-09T00:06:42.249Z,34.67
2024-01-09T00:06:55.402Z,34.97
2024-01-09T00:07:08.559Z,35.95
2024-01-09T00:07:21.709Z,35.65
2024-01-09T00:07:35.136Z,35.25
2024-01-09T00:07:49.159Z,36.00
2024-01-09T00:08:02.142Z,35.58
2024-01-09T00:08:15.157Z,35.53
2024-01-09T00:08:28.152Z,35.58
2024-01-09T00:08:41.252Z,36.33
2024-01-09T00:08:54.294Z,36.28
2024-01-09T00:09:07.536Z,35.58
2024-01-09T00:09:21.906Z,35.33
2024-01-09T00:09:35.821Z,35.40
2024-01-09T00:09:49.350Z,35.05
2024-01-09T00:10:02.566Z,34.47
2024-01-09T00:10:15.656Z,34.03
2024-01-09T00:10:28.644Z,33.70
2024-01-09T00:10:41.614Z,34.10
2024-01-09T00:10:54.886Z,33.15
2024-01-09T00:11:08.125Z,32.45
2024-01-09T00:11:21.211Z,32.58
2024-01-09T00:11:35.294Z,32.17
2024-01-09T00:11:48.746Z,32.78
2024-01-09T00:12:01.879Z,33.38
2024-01-09T00:12:14.883Z,33.13
2024-01-09T00:12:27.829Z,33.03
2024-01-09T00:12:41.039Z,33.83
2024-01-09T00:12:54.098Z,33.15
2024-01-09T00:13:07.114Z,32.20
2024-01-09T00:13:20.124Z,30.95
2024-01-09T00:13:33.448Z,31.23
2024-01-09T00:13:47.457Z,31.42
2024-01-09T00:14:00.474Z,30.70
2024-01-09T00:14:13.584Z,31.68
2024-01-09T00:14:26.711Z,32.13
2024-01-09T00:14:39.764Z,30.70
2024-01-09T00:14:52.789Z,30.85
2024-01-09T00:15:08.348Z,30.63
2024-01-09T00:15:21.327Z,29.80
2024-01-09T00:15:34.283Z,29.00
2024-01-09T00:15:48.301Z,29.00
2024-01-09T00:16:01.355Z,28.98
2024-01-09T00:16:14.456Z,28.10
2024-01-09T00:16:27.462Z,27.38
2024-01-09T00:16:40.458Z,26.90
2024-01-09T00:16:53.699Z,26.88
2024-01-09T00:17:07.086Z,27.13
2024-01-09T00:17:20.165Z,26.88
2024-01-09T00:17:34.272Z,26.10
2024-01-09T00:17:47.727Z,26.38
2024-01-09T00:18:00.949Z,26.58
2024-01-09T00:18:14.148Z,27.13
2024-01-09T00:18:27.334Z,27.73
2024-01-09T00:18:40.572Z,27.58
2024-01-09T00:18:55.188Z,27.95
2024-01-09T00:19:08.456Z,28.33
2024-01-09T00:19:21.899Z,27.44
2024-01-09T00:19:37.474Z,27.80
2024-01-09T00:19:50.452Z,28.25
2024-01-09T00:20:04.201Z,28.17
2024-01-09T00:20:17.961Z,28.42
2024-01-09T00:20:31.132Z,28.27
2024-01-09T00:20:44.089Z,28.15
2024-01-09T00:20:57.613Z,26.52
2024-01-09T00:21:10.680Z,26.67
2024-01-09T00:21:25.144Z,27.88
2024-01-09T00:21:39.680Z,28.30
2024-01-09T00:21:54.032Z,27.88
2024-01-09T00:22:07.010Z,26.63
2024-01-09T00:22:19.999Z,26.50
2024-01-09T00:22:33.002Z,26.92
2024-01-09T00:22:45.993Z,27.10
2024-01-09T00:22:58.996Z,27.35
2024-01-09T00:23:11.952Z,26.85
2024-01-09T00:23:25.990Z,26.30
2024-01-09T00:23:39.132Z,25.77
2024-01-09T00:23:52.252Z,25.27
2024-01-09T00:24:05.657Z,25.17
2024-01-09T00:24:18.680Z,25.38
2024-01-09T00:24:31.938Z,26.48
2024-01-09T00:24:44.876Z,26.30
2024-01-09T00:24:57.826Z,24.67
2024-01-09T00:25:10.767Z,25.33
2024-01-09T00:25:24.778Z,26.00
2024-01-09T00:25:37.882Z,25.92
2024-01-09T00:25:52.792Z,25.63
2024-01-09T00:26:05.840Z,26.08
2024-01-09T00:26:20.188Z,25.70
2024-01-09T00:26:33.200Z,25.10
2024-01-09T00:26:46.940Z,26.20
2024-01-09T00:27:00.022Z,26.60
2024-01-09T00:27:13.041Z,26.33
2024-01-09T00:27:26.045Z,26.00
2024-01-09T00:27:40.262Z,25.80
2024-01-09T00:27:53.230Z,26.27
2024-01-09T00:28:06.657Z,25.52
2024-01-09T00:28:19.998Z,24.95
2024-01-09T00:28:32.929Z,25.45
2024-01-09T00:28:45.897Z,25.80
2024-01-09T00:28:58.880Z,26.02
2024-01-09T00:29:12.160Z,25.70
2024-01-09T00:29:25.418Z,25.15
2024-01-09T00:29:39.522Z,25.25
2024-01-09T00:29:52.697Z,25.15
2024-01-09T00:30:06.872Z,25.98
2024-01-09T00:30:20.871Z,25.88
2024-01-09T00:30:34.051Z,24.67
2024-01-09T00:30:47.294Z,24.45
2024-01-09T00:31:00.429Z,24.75
2024-01-09T00:31:13.674Z,24.85
2024-01-09T00:31:27.549Z,24.98
2024-01-09T00:31:40.615Z,25.73
2024-01-09T00:31:53.992Z,25.85
2024-01-09T00:32:09.168Z,25.17
2024-01-09T00:32:22.911Z,24.63
2024-01-09T00:32:35.990Z,24.98
2024-01-09T00:32:50.501Z,25.45
2024-01-09T00:33:03.900Z,25.95
2024-01-09T00:33:18.234Z,25.50
2024-01-09T00:33:31.584Z,25.73
2024-01-09T00:33:44.802Z,26.85
2024-01-09T00:33:57.914Z,27.40
2024-01-09T00:34:11.006Z,27.45
2024-01-09T00:34:24.157Z,27.23
2024-01-09T00:34:38.603Z,27.48
2024-01-09T00:34:51.785Z,27.38
2024-01-09T00:35:05.415Z,27.15
2024-01-09T00:35:18.764Z,27.02
2024-01-09T00:35:33.061Z,27.40
2024-01-09T00:35:46.314Z,27.48
2024-01-09T00:35:59.343Z,27.80
2024-01-09T00:36:12.247Z,27.98
2024-01-09T00:36:25.857Z,27.92
2024-01-09T00:36:43.653Z,28.42
2024-01-09T00:36:56.568Z,28.58
2024-01-09T00:37:09.558Z,28.40
2024-01-09T00:37:23.542Z,28.88
2024-01-09T00:37:36.453Z,28.88
2024-01-09T00:37:49.320Z,28.55
2024-01-09T00:38:02.729Z,28.00
2024-01-09T00:38:15.701Z,27.98
2024-01-09T00:38:28.681Z,28.13
2024-01-09T00:38:41.670Z,28.13
2024-01-09T00:38:55.102Z,28.52
2024-01-09T00:39:09.319Z,28.88
2024-01-09T00:39:22.232Z,28.30
2024-01-09T00:39:35.098Z,27.05
2024-01-09T00:39:48.808Z,26.90
2024-01-09T00:40:01.726Z,27.65
2024-01-09T00:40:14.777Z,28.50
2024-01-09T00:40:27.686Z,28.98
2024-01-09T00:40:41.362Z,29.40
2024-01-09T00:40:54.394Z,29.58
2024-01-09T00:41:08.301Z,29.02
2024-01-09T00:41:21.367Z,28.67
2024-01-09T00:41:34.372Z,29.13
2024-01-09T00:41:47.420Z,29.77
2024-01-09T00:42:00.530Z,29.88
2024-01-09T00:42:13.520Z,29.30
2024-01-09T00:42:26.680Z,28.83
2024-01-09T00:42:39.556Z,29.13
2024-01-09T00:42:52.407Z,29.95
2024-01-09T00:43:05.336Z,30.13
2024-01-09T00:43:19.487Z,29.75
2024-01-09T00:43:32.412Z,29.40
2024-01-09T00:43:45.277Z,29.73
2024-01-09T00:43:58.618Z,29.35
2024-01-09T00:44:11.580Z,29.30
2024-01-09T00:44:24.672Z,30.05
2024-01-09T00:44:37.846Z,30.48
2024-01-09T00:44:50.913Z,30.23
2024-01-09T00:45:06.016Z,30.20
2024-01-09T00:45:20.117Z,29.83
2024-01-09T00:45:35.434Z,29.38
2024-01-09T00:45:49.285Z,29.52
2024-01-09T00:46:02.472Z,29.73
2024-01-09T00:46:15.649Z,30.00
2024-01-09T00:46:29.745Z,29.00
2024-01-09T00:46:42.784Z,28.65
2024-01-09T00:46:55.681Z,28.77
2024-01-09T00:47:08.688Z,29.02
2024-01-09T00:47:21.616Z,29.17
2024-01-09T00:47:34.658Z,30.15
2024-01-09T00:47:48.858Z,29.55
2024-01-09T00:48:01.895Z,29.20
2024-01-09T00:48:16.807Z,28.75
2024-01-09T00:48:30.190Z,29.23
2024-01-09T00:48:43.275Z,29.58
2024-01-09T00:48:56.596Z,29.02
2024-01-09T00:49:09.626Z,29.45
2024-01-09T00:49:22.690Z,29.52
2024-01-09T00:49:35.980Z,29.10
2024-01-09T00:49:50.494Z,28.92
2024-01-09T00:50:03.557Z,28.17
2024-01-09T00:50:17.726Z,28.42
2024-01-09T00:50:30.685Z,28.45
2024-01-09T00:50:43.996Z,26.95
2024-01-09T00:50:56.927Z,26.25
2024-01-09T00:51:09.839Z,26.42
2024-01-09T00:51:22.809Z,26.98
2024-01-09T00:51:35.699Z,26.48
2024-01-09T00:51:48.702Z,25.98
2024-01-09T00:52:03.627Z,26.67
2024-01-09T00:52:16.589Z,26.85
2024-01-09T00:52:29.669Z,26.50
2024-01-09T00:52:42.620Z,27.30
2024-01-09T00:52:55.641Z,26.60
2024-01-09T00:53:09.142Z,25.90
2024-01-09T00:53:22.315Z,25.38
2024-01-09T00:53:35.287Z,25.38
2024-01-09T00:53:48.185Z,25.83
2024-01-09T00:54:01.107Z,25.92
2024-01-09T00:54:14.106Z,24.90
2024-01-09T00:54:28.053Z,24.48
2024-01-09T00:54:43.310Z,25.25
2024-01-09T00:54:56.278Z,25.27
2024-01-09T00:55:09.614Z,24.52
2024-01-09T00:55:22.547Z,23.95
2024-01-09T00:55:35.375Z,23.92
2024-01-09T00:55:48.585Z,24.20
2024-01-09T00:56:01.442Z,24.95
2024-01-09T00:56:15.529Z,25.58
2024-01-09T00:56:42.939Z,25.13
2024-01-09T00:56:56.079Z,24.95
2024-01-09T00:57:09.044Z,24.02
2024-01-09T00:57:23.250Z,23.98
2024-01-09T00:57:37.199Z,24.50
2024-01-09T00:57:50.048Z,25.00
2024-01-09T00:58:02.985Z,24.73
2024-01-09T00:58:16.892Z,25.08
2024-01-09T00:58:29.961Z,25.00
2024-01-09T00:58:42.949Z,25.63
2024-01-09T00:58:55.911Z,25.88
2024-01-09T00:59:09.560Z,24.77
2024-01-09T00:59:22.553Z,24.40
2024-01-09T00:59:36.028Z,25.05
2024-01-09T00:59:49.231Z,25.40
2024-01-09T01:00:02.126Z,24.73
2024-01-09T01:00:17.904Z,24.25
2024-01-09T01:00:30.823Z,24.05
2024-01-09T01:00:43.761Z,24.23
2024-01-09T01:00:57.014Z,25.02
2024-01-09T01:01:10.976Z,25.85
2024-01-09T01:01:24.036Z,26.33
2024-01-09T01:01:37.085Z,26.67
2024-01-09T01:01:50.847Z,26.70
2024-01-09T01:02:05.273Z,27.08
2024-01-09T01:02:18.313Z,27.73
2024-01-09T01:02:31.310Z,28.38
2024-01-09T01:02:44.218Z,29.52
2024-01-09T01:02:57.357Z,29.02
2024-01-09T01:03:10.258Z,29.10
2024-01-09T01:03:23.270Z,29.55
2024-01-09T01:03:36.425Z,29.80
2024-01-09T01:03:50.852Z,29.77
2024-01-09T01:04:03.922Z,30.10
2024-01-09T01:04:17.026Z,31.42
2024-01-09T01:04:30.101Z,33.33
2024-01-09T01:04:43.288Z,33.40
2024-01-09T01:04:57.667Z,33.70
2024-01-09T01:05:14.320Z,33.65
2024-01-09T01:05:27.580Z,34.20
2024-01-09T01:05:40.657Z,35.33
2024-01-09T01:05:54.945Z,35.67
2024-01-09T01:06:08.184Z,36.38
2024-01-09T01:06:21.138Z,36.63
2024-01-09T01:06:41.566Z,36.28
2024-01-09T01:06:54.668Z,36.55
2024-01-09T01:07:07.740Z,36.58
2024-01-09T01:07:20.739Z,36.33
2024-01-09T01:07:33.941Z,36.55
2024-01-09T01:07:46.819Z,35.33
2024-01-09T01:08:00.865Z,34.95
2024-01-09T01:08:13.833Z,34.75
2024-01-09T01:08:26.742Z,35.10
2024-01-09T01:08:39.806Z,35.22
2024-01-09T01:08:53.025Z,35.05
2024-01-09T01:09:06.239Z,35.15
2024-01-09T01:09:19.719Z,34.65
2024-01-09T01:09:32.767Z,33.75
2024-01-09T01:09:45.668Z,33.13
2024-01-09T01:09:59.575Z,33.05
2024-01-09T01:10:17.541Z,33.42
2024-01-09T01:10:32.945Z,34.10
2024-01-09T01:10:45.950Z,33.75
2024-01-09T01:10:58.889Z,33.72
2024-01-09T01:11:12.239Z,33.70
2024-01-09T01:11:25.246Z,33.92
2024-01-09T01:11:39.411Z,33.33
2024-01-09T01:11:52.491Z,33.83
2024-01-09T01:12:06.103Z,33.40
2024-01-09T01:12:19.035Z,33.20
2024-01-09T01:12:32.475Z,32.92
2024-01-09T01:12:45.543Z,32.55
2024-01-09T01:12:58.491Z,33.95
2024-01-09T01:13:12.498Z,34.33
2024-01-09T01:13:25.439Z,34.53
2024-01-09T01:13:38.379Z,33.95
2024-01-09T01:13:51.275Z,33.58
2024-01-09T01:14:04.264Z,34.20
2024-01-09T01:14:17.228Z,33.60
2024-01-09T01:14:30.213Z,33.33
2024-01-09T01:14:43.564Z,33.22
2024-01-09T01:14:56.582Z,34.15
2024-01-09T01:15:10.306Z,34.85
2024-01-09T01:15:25.286Z,34.78
2024-01-09T01:15:38.200Z,34.30
2024-01-09T01:15:51.087Z,33.80
2024-01-09T01:16:04.189Z,33.52
2024-01-09T01:16:17.081Z,33.30
2024-01-09T01:16:29.998Z,33.90
2024-01-09T01:16:43.103Z,33.72
2024-01-09T01:16:56.054Z,34.17
2024-01-09T01:17:09.178Z,34.70
2024-01-09T01:17:23.257Z,34.55
2024-01-09T01:17:36.323Z,34.58
2024-01-09T01:17:49.406Z,34.28
2024-01-09T01:18:02.832Z,34.30
2024-01-09T01:18:16.194Z,33.10
2024-01-09T01:18:29.253Z,33.20
2024-01-09T01:18:42.260Z,32.97
2024-01-09T01:18:55.300Z,31.67
2024-01-09T01:19:08.443Z,31.88
2024-01-09T01:19:22.508Z,32.00
2024-01-09T01:19:35.695Z,31.58
2024-01-09T01:19:48.744Z,32.03
2024-01-09T01:20:03.772Z,31.83
2024-01-09T01:20:16.876Z,31.92
2024-01-09T01:20:29.983Z,31.63
2024-01-09T01:20:43.127Z,31.92
2024-01-09T01:20:56.191Z,31.40
2024-01-09T01:21:10.185Z,30.63
2024-01-09T01:21:23.515Z,30.83
2024-01-09T01:21:36.464Z,31.13
2024-01-09T01:21:49.797Z,30.88
2024-01-09T01:22:02.724Z,31.38
2024-01-09T01:22:15.837Z,31.30
2024-01-09T01:22:28.806Z,30.90
2024-01-09T01:22:42.391Z,30.85
2024-01-09T01:22:55.376Z,30.20
2024-01-09T01:23:09.572Z,30.25
2024-01-09T01:23:22.550Z,30.27
2024-01-09T01:23:35.538Z,30.92
2024-01-09T01:23:48.850Z,31.23
2024-01-09T01:24:01.986Z,31.15
2024-01-09T01:24:15.210Z,31.25
2024-01-09T01:24:28.199Z,32.00
2024-01-09T01:24:42.133Z,33.42
2024-01-09T01:24:55.059Z,33.92
2024-01-09T01:25:09.429Z,33.42
2024-01-09T01:25:22.726Z,34.08
2024-01-09T01:25:36.021Z,33.38
2024-01-09T01:25:49.221Z,32.08
2024-01-09T01:26:02.132Z,32.40
2024-01-09T01:26:16.378Z,32.80
2024-01-09T01:26:30.535Z,31.45
2024-01-09T01:26:43.528Z,30.15
2024-01-09T01:26:56.481Z,30.33
2024-01-09T01:27:09.468Z,29.52
2024-01-09T01:27:22.452Z,29.45
2024-01-09T01:27:35.366Z,30.00
2024-01-09T01:27:48.241Z,30.10
2024-01-09T01:28:02.176Z,28.67
2024-01-09T01:28:15.446Z,27.95
2024-01-09T01:28:28.376Z,28.17
2024-01-09T01:28:41.433Z,28.38
2024-01-09T01:28:54.379Z,28.77
2024-01-09T01:29:07.868Z,29.45
2024-01-09T01:29:20.824Z,29.65
2024-01-09T01:29:33.725Z,29.23
2024-01-09T01:29:46.860Z,28.80
2024-01-09T01:29:59.994Z,28.38
2024-01-09T01:30:14.253Z,28.17
2024-01-09T01:30:27.231Z,27.38
2024-01-09T01:30:40.229Z,26.00
2024-01-09T01:30:53.621Z,25.58
2024-01-09T01:31:06.628Z,25.08
2024-01-09T01:31:19.587Z,25.50
2024-01-09T01:31:32.469Z,26.75
2024-01-09T01:31:47.041Z,26.75
2024-01-09T01:32:00.987Z,26.42
2024-01-09T01:32:13.978Z,25.30
2024-01-09T01:32:27.022Z,25.25
2024-01-09T01:32:40.977Z,25.95
2024-01-09T01:32:53.965Z,26.33
2024-01-09T01:33:07.691Z,27.02
2024-01-09T01:33:21.370Z,27.08
2024-01-09T01:33:34.567Z,26.40
2024-01-09T01:33:47.605Z,26.02
2024-01-09T01:34:01.660Z,25.65
2024-01-09T01:34:15.200Z,25.33
2024-01-09T01:34:28.178Z,26.02
2024-01-09T01:34:41.483Z,25.35
2024-01-09T01:34:54.459Z,24.25
2024-01-09T01:35:09.293Z,24.50
2024-01-09T01:35:22.240Z,24.95
2024-01-09T01:35:35.154Z,24.05
2024-01-09T01:35:49.254Z,23.52
2024-01-09T01:36:02.188Z,23.58
2024-01-09T01:36:15.956Z,23.15
2024-01-09T01:36:28.883Z,23.95
2024-01-09T01:36:41.732Z,23.55
2024-01-09T01:36:54.702Z,22.45
2024-01-09T01:37:07.711Z,22.88
2024-01-09T01:37:20.780Z,22.05
2024-01-09T01:37:34.864Z,21.70
2024-01-09T01:37:47.738Z,21.85
2024-01-09T01:38:00.644Z,21.92
2024-01-09T01:38:13.649Z,21.17
2024-01-09T01:38:27.285Z,21.17
2024-01-09T01:38:40.313Z,21.98
2024-01-09T01:38:53.295Z,21.80
2024-01-09T01:39:06.253Z,21.13
2024-01-09T01:39:20.573Z,22.00
2024-01-09T01:39:33.467Z,21.67
2024-01-09T01:39:46.701Z,21.00
2024-01-09T01:39:59.545Z,21.33
2024-01-09T01:40:13.531Z,22.06
2024-01-09T01:40:26.471Z,21.83
2024-01-09T01:40:39.394Z,21.50
2024-01-09T01:40:52.374Z,21.50
2024-01-09T01:41:06.706Z,21.55
2024-01-09T01:41:19.794Z,21.85
2024-01-09T01:41:32.713Z,22.55
2024-01-09T01:41:45.665Z,22.17
2024-01-09T01:41:58.676Z,21.90
2024-01-09T01:42:11.978Z,22.33
2024-01-09T01:42:24.889Z,22.30
2024-01-09T01:42:37.817Z,22.38
2024-01-09T01:42:50.890Z,22.38
2024-01-09T01:43:06.601Z,22.30
2024-01-09T01:43:19.789Z,22.25
2024-01-09T01:43:32.749Z,22.00
2024-01-09T01:43:45.735Z,22.17
2024-01-09T01:43:58.643Z,22.15
2024-01-09T01:44:18.149Z,22.20
2024-01-09T01:44:31.216Z,22.70
2024-01-09T01:44:44.225Z,22.58
2024-01-09T01:44:57.318Z,22.38
2024-01-09T01:45:18.869Z,22.73
2024-01-09T01:45:31.978Z,22.40
2024-01-09T01:45:44.943Z,22.45
2024-01-09T01:45:57.833Z,22.27
2024-01-09T01:46:11.074Z,22.45
2024-01-09T01:46:24.194Z,22.80
2024-01-09T01:46:37.502Z,23.24
2024-01-09T01:46:52.692Z,22.48
2024-01-09T01:47:07.035Z,22.05
2024-01-09T01:47:20.449Z,21.83
2024-01-09T01:47:34.054Z,21.60
2024-01-09T01:47:49.360Z,21.65
2024-01-09T01:48:04.603Z,22.52
2024-01-09T01:48:17.913Z,22.42
2024-01-09T01:48:33.019Z,22.67
2024-01-09T01:48:47.292Z,23.70
2024-01-09T01:49:00.529Z,23.33
2024-01-09T01:49:15.825Z,22.45
2024-01-09T01:49:29.064Z,21.75
2024-01-09T01:49:42.717Z,21.17
2024-01-09T01:49:55.926Z,21.67
2024-01-09T01:50:10.622Z,22.23
2024-01-09T01:50:24.161Z,22.17
2024-01-09T01:50:38.740Z,21.80
2024-01-09T01:50:52.054Z,22.00
2024-01-09T01:51:05.848Z,21.77
2024-01-09T01:51:19.303Z,22.02
2024-01-09T01:51:32.212Z,22.65
2024-01-09T01:51:46.650Z,22.13
2024-01-09T01:52:00.681Z,22.23
2024-01-09T01:52:14.528Z,22.80
2024-01-09T01:52:28.733Z,22.70
2024-01-09T01:52:43.092Z,23.02
2024-01-09T01:52:56.397Z,23.35
2024-01-09T01:53:09.931Z,23.55
2024-01-09T01:53:23.352Z,23.63
2024-01-09T01:53:37.365Z,23.10
2024-01-09T01:53:51.123Z,22.75
2024-01-09T01:54:04.218Z,22.98
2024-01-09T01:54:17.574Z,23.27
2024-01-09T01:54:34.525Z,22.88
2024-01-09T01:54:47.971Z,23.40
2024-01-09T01:55:01.097Z,23.70
2024-01-09T01:55:15.744Z,23.33
2024-01-09T01:55:30.046Z,22.90
2024-01-09T01:55:43.241Z,22.85
2024-01-09T01:55:56.847Z,23.02
2024-01-09T01:56:10.050Z,24.63
2024-01-09T01:56:23.783Z,25.20
2024-01-09T01:56:37.154Z,24.88
2024-01-09T01:56:53.015Z,23.76
2024-01-09T01:57:07.353Z,23.58
2024-01-09T01:57:20.585Z,23.52
2024-01-09T01:57:33.757Z,23.80
2024-01-09T01:57:48.899Z,23.58
2024-01-09T01:58:03.444Z,22.95
2024-01-09T01:58:16.797Z,23.67
2024-01-09T01:58:33.554Z,24.20
2024-01-09T01:58:47.872Z,24.83
2024-01-09T01:59:01.870Z,25.05
2024-01-09T01:59:18.221Z,24.25
2024-01-09T01:59:33.687Z,24.98
2024-01-09T01:59:47.605Z,25.45
2024-01-09T02:00:00.692Z,25.42
2024-01-09T02:00:16.238Z,26.30
2024-01-09T02:00:29.724Z,26.05
2024-01-09T02:00:43.590Z,25.88
2024-01-09T02:00:56.995Z,25.75
2024-01-09T02:01:11.961Z,25.77
2024-01-09T02:01:25.193Z,25.55
2024-01-09T02:01:39.577Z,24.55
2024-01-09T02:01:53.614Z,24.45
2024-01-09T02:02:07.246Z,25.00
2024-01-09T02:02:20.532Z,25.23
2024-01-09T02:02:33.844Z,26.27
2024-01-09T02:02:49.130Z,26.30
2024-01-09T02:03:03.039Z,25.48
2024-01-09T02:03:17.153Z,25.73
2024-01-09T02:03:30.326Z,26.17
2024-01-09T02:03:43.462Z,26.95
2024-01-09T02:03:57.328Z,27.67
2024-01-09T02:04:11.472Z,27.73
2024-01-09T02:04:25.993Z,27.38
2024-01-09T02:04:40.717Z,27.55
2024-01-09T02:04:54.361Z,28.13
2024-01-09T02:05:10.926Z,27.10
2024-01-09T02:05:27.155Z,26.13
2024-01-09T02:05:40.857Z,27.00
2024-01-09T02:05:54.853Z,27.80
2024-01-09T02:06:08.477Z,27.95
2024-01-09T02:06:21.495Z,28.40
2024-01-09T02:06:35.265Z,28.95
2024-01-09T02:06:48.544Z,28.67
2024-01-09T02:07:02.228Z,29.30
2024-01-09T02:07:16.261Z,29.50
2024-01-09T02:07:31.818Z,29.33
2024-01-09T02:07:47.271Z,29.10
2024-01-09T02:08:02.463Z,28.83
2024-01-09T02:08:16.373Z,28.95
2024-01-09T02:08:31.773Z,28.35
2024-01-09T02:08:45.428Z,28.83
2024-01-09T02:08:59.441Z,29.40
2024-01-09T02:09:12.397Z,29.20
2024-01-09T02:09:25.576Z,29.20
2024-01-09T02:09:38.937Z,29.88
2024-01-09T02:09:53.232Z,29.58
2024-01-09T02:10:06.913Z,28.85
2024-01-09T02:10:20.958Z,29.08
2024-01-09T02:10:34.018Z,29.98
2024-01-09T02:10:46.992Z,30.38
2024-01-09T02:10:59.960Z,29.50
2024-01-09T02:11:14.393Z,29.88
2024-01-09T02:11:27.451Z,28.88
2024-01-09T02:11:40.583Z,28.33
2024-01-09T02:11:54.558Z,28.75
2024-01-09T02:12:08.654Z,29.90
2024-01-09T02:12:21.547Z,30.88
2024-01-09T02:12:34.638Z,31.55
2024-01-09T02:12:47.745Z,31.35
2024-01-09T02:13:00.669Z,31.17
2024-01-09T02:13:15.189Z,30.40
2024-01-09T02:13:28.059Z,31.20
2024-01-09T02:13:41.267Z,32.47
2024-01-09T02:13:54.122Z,33.25
2024-01-09T02:14:07.332Z,33.53
2024-01-09T02:14:20.282Z,33.20
2024-01-09T02:14:33.392Z,32.70
2024-01-09T02:14:46.554Z,32.50
2024-01-09T02:14:59.516Z,32.33
2024-01-09T02:15:12.443Z,31.65
2024-01-09T02:15:26.410Z,30.85
2024-01-09T02:15:39.901Z,30.30
2024-01-09T02:15:52.810Z,29.77
2024-01-09T02:16:05.925Z,30.08
2024-01-09T02:16:19.090Z,29.85
2024-01-09T02:16:32.012Z,29.80
2024-01-09T02:16:44.961Z,30.15
2024-01-09T02:16:57.849Z,29.40
2024-01-09T02:17:10.864Z,29.25
2024-01-09T02:17:24.794Z,29.80
2024-01-09T02:17:40.276Z,28.80
2024-01-09T02:17:53.545Z,27.83
2024-01-09T02:18:06.852Z,28.70
2024-01-09T02:18:20.053Z,28.67
2024-01-09T02:18:33.098Z,28.85
2024-01-09T02:18:46.060Z,28.75
2024-01-09T02:18:59.083Z,29.05
2024-01-09T02:19:12.335Z,29.17
2024-01-09T02:19:25.305Z,28.40
2024-01-09T02:19:39.331Z,27.52
2024-01-09T02:19:52.457Z,27.45
2024-01-09T02:20:07.662Z,27.75
2024-01-09T02:20:23.694Z,28.15
2024-01-09T02:20:36.802Z,28.58
2024-01-09T02:20:49.861Z,29.02
2024-01-09T02:21:02.891Z,28.45
2024-01-09T02:21:15.990Z,27.92
2024-01-09T02:21:30.553Z,28.15
2024-01-09T02:21:44.677Z,29.13
2024-01-09T02:21:57.681Z,29.88
2024-01-09T02:22:10.539Z,30.40
2024-01-09T02:22:23.790Z,30.27
2024-01-09T02:22:37.089Z,29.05
2024-01-09T02:22:50.214Z,28.67
2024-01-09T02:23:03.472Z,28.52
2024-01-09T02:23:17.437Z,28.23
2024-01-09T02:23:30.733Z,28.92
2024-01-09T02:23:44.491Z,29.35
2024-01-09T02:23:57.729Z,28.52
2024-01-09T02:24:10.743Z,28.05
2024-01-09T02:24:23.644Z,29.00
2024-01-09T02:24:36.710Z,29.27
2024-01-09T02:24:49.548Z,27.63
2024-01-09T02:25:02.496Z,27.23
2024-01-09T02:25:16.443Z,27.60
2024-01-09T02:25:29.924Z,28.08
2024-01-09T02:25:43.041Z,28.92
2024-01-09T02:26:05.490Z,28.38
2024-01-09T02:26:39.678Z,28.22
2024-01-09T02:27:05.385Z,28.88
2024-01-09T02:27:29.273Z,27.60
2024-01-09T02:27:51.588Z,27.27
2024-01-09T02:28:12.448Z,27.70
2024-01-09T02:28:29.017Z,29.17
2024-01-09T02:28:48.047Z,28.73
2024-01-09T02:29:07.147Z,27.65
2024-01-09T02:29:24.118Z,29.05
2024-01-09T02:29:48.093Z,28.55
2024-01-09T02:30:02.110Z,28.35
2024-01-09T02:30:15.278Z,28.00
2024-01-09T02:30:29.146Z,27.90
2024-01-09T02:30:43.870Z,27.90
2024-01-09T02:30:58.102Z,26.73
2024-01-09T02:31:11.298Z,27.33
2024-01-09T02:31:24.444Z,27.35
2024-01-09T02:31:37.951Z,27.58
2024-01-09T02:31:51.293Z,26.27
2024-01-09T02:32:05.875Z,25.70
2024-01-09T02:32:21.269Z,26.90
2024-01-09T02:32:36.242Z,26.70
2024-01-09T02:32:49.542Z,26.33
2024-01-09T02:33:02.923Z,26.13
2024-01-09T02:33:16.244Z,26.40
2024-01-09T02:33:29.939Z,27.77
2024-01-09T02:33:44.592Z,27.30
2024-01-09T02:33:59.938Z,26.58
2024-01-09T02:34:14.555Z,26.73
2024-01-09T02:34:29.835Z,27.63
2024-01-09T02:34:44.776Z,27.92
2024-01-09T02:34:57.798Z,26.45
2024-01-09T02:35:10.779Z,26.42
2024-01-09T02:35:23.892Z,27.10
2024-01-09T02:35:37.155Z,27.30
2024-01-09T02:35:50.199Z,28.13
2024-01-09T02:36:03.150Z,27.98
2024-01-09T02:36:17.095Z,28.17
2024-01-09T02:36:30.006Z,28.15
2024-01-09T02:36:42.940Z,27.73
2024-01-09T02:36:55.855Z,28.00
2024-01-09T02:37:08.768Z,28.55
2024-01-09T02:37:21.726Z,28.58
2024-01-09T02:37:34.964Z,28.38
2024-01-09T02:37:48.426Z,27.40
2024-01-09T02:38:01.517Z,25.90
2024-01-09T02:38:15.452Z,26.25
2024-01-09T02:38:28.424Z,27.42
2024-01-09T02:38:41.361Z,28.02
2024-01-09T02:38:54.338Z,28.48
2024-01-09T02:39:08.613Z,29.50
2024-01-09T02:39:21.492Z,29.60
2024-01-09T02:39:34.458Z,29.23
2024-01-09T02:39:47.355Z,28.65
2024-01-09T02:40:01.635Z,28.95
2024-01-09T02:40:14.666Z,29.75
2024-01-09T02:40:27.580Z,28.98
2024-01-09T02:40:41.735Z,28.52
2024-01-09T02:40:54.994Z,28.80
2024-01-09T02:41:07.974Z,29.48
2024-01-09T02:41:20.961Z,29.25
2024-01-09T02:41:37.537Z,28.77
2024-01-09T02:41:52.116Z,28.30
2024-01-09T02:42:05.657Z,29.25
2024-01-09T02:42:18.741Z,31.05
2024-01-09T02:42:32.639Z,30.50
2024-01-09T02:42:45.568Z,28.85
2024-01-09T02:42:58.497Z,28.80
2024-01-09T02:43:11.630Z,29.25
2024-01-09T02:43:24.484Z,28.85
2024-01-09T02:43:37.421Z,28.17
2024-01-09T02:43:50.321Z,27.67
2024-01-09T02:44:03.293Z,26.83
2024-01-09T02:44:17.475Z,27.20
2024-01-09T02:44:30.418Z,28.52
2024-01-09T02:44:44.750Z,28.13
2024-01-09T02:44:59.059Z,27.60
2024-01-09T02:45:14.945Z,27.98
2024-01-09T02:45:27.947Z,27.77
2024-01-09T02:45:40.922Z,27.35
2024-01-09T02:45:54.014Z,27.90
2024-01-09T02:46:07.039Z,27.98
2024-01-09T02:46:20.160Z,28.50
2024-01-09T02:46:33.061Z,26.95
2024-01-09T02:46:47.467Z,25.80
2024-01-09T02:47:00.360Z,26.08
2024-01-09T02:47:14.195Z,26.80
2024-01-09T02:47:28.093Z,26.55
2024-01-09T02:47:41.138Z,26.60
2024-01-09T02:47:54.433Z,27.23
2024-01-09T02:48:08.508Z,27.92
2024-01-09T02:48:21.688Z,27.83
2024-01-09T02:48:36.637Z,27.16
2024-01-09T02:48:49.633Z,26.05
2024-01-09T02:49:02.648Z,26.52
2024-01-09T02:49:15.826Z,27.20
2024-01-09T02:49:28.839Z,27.23
2024-01-09T02:49:41.761Z,26.67
2024-01-09T02:49:54.835Z,26.83
2024-01-09T02:50:08.530Z,26.23
2024-01-09T02:50:21.842Z,26.20
2024-01-09T02:50:35.933Z,26.60
2024-01-09T02:50:49.000Z,27.38
2024-01-09T02:51:01.995Z,27.70
2024-01-09T02:51:15.016Z,26.83
2024-01-09T02:51:28.004Z,26.02
2024-01-09T02:51:41.316Z,25.48
2024-01-09T02:51:54.386Z,25.48
2024-01-09T02:52:07.292Z,25.67
2024-01-09T02:52:20.282Z,25.85
2024-01-09T02:52:34.175Z,25.73
2024-01-09T02:52:47.170Z,25.85
2024-01-09T02:53:00.028Z,25.05
2024-01-09T02:53:12.967Z,25.83
2024-01-09T02:53:25.897Z,25.95
2024-01-09T02:53:38.853Z,25.98
2024-01-09T02:53:53.002Z,25.30
2024-01-09T02:54:06.412Z,25.52
2024-01-09T02:54:19.600Z,25.83
2024-01-09T02:54:32.482Z,25.73
2024-01-09T02:54:45.743Z,25.65
2024-01-09T02:54:59.719Z,25.60
2024-01-09T02:55:13.140Z,25.38
2024-01-09T02:55:26.077Z,25.60
2024-01-09T02:55:38.989Z,26.15
2024-01-09T02:55:51.906Z,25.40
2024-01-09T02:56:05.667Z,24.92
2024-01-09T02:56:18.645Z,25.83
2024-01-09T02:56:31.556Z,25.92